DCUTE WSSL-WSSL

Flight info

Callsign DCUTE
Flight time 0h 26m
Altitude 1000
Route CCTS
Aircraft SR22/L-V/N

Departure

Time 2026-05-07 15:20
Airport Seletar Airport (WSSL)

Arrival

Time 2026-05-07 15:46
Airport Seletar Airport (WSSL)
Time Latitude Longitude Altitude Speed Heading
2026-05-07 14:55 1.41388 103.86887 46 ft 0 kts 33°
2026-05-07 15:16 1.41390 103.86888 46 ft 2 kts 33°
2026-05-07 15:16 1.41435 103.86871 46 ft 12 kts 302°
2026-05-07 15:16 1.41443 103.86790 46 ft 10 kts 206°
2026-05-07 15:16 1.41391 103.86755 46 ft 12 kts 207°
2026-05-07 15:17 1.41250 103.86666 46 ft 35 kts 215°
2026-05-07 15:17 1.41058 103.86538 46 ft 29 kts 213°
2026-05-07 15:17 1.40908 103.86440 46 ft 22 kts 211°
2026-05-07 15:17 1.40800 103.86369 46 ft 14 kts 228°
2026-05-07 15:18 1.40803 103.86324 46 ft 0 kts 282°
2026-05-07 15:18 1.40804 103.86319 46 ft 3 kts 288°
2026-05-07 15:18 1.40817 103.86298 46 ft 0 kts 309°
2026-05-07 15:19 1.40838 103.86267 46 ft 16 kts 303°
2026-05-07 15:19 1.40902 103.86247 46 ft 14 kts 32°
2026-05-07 15:19 1.41214 103.86452 47 ft 85 kts 34°
2026-05-07 15:20 1.41748 103.86803 311 ft 94 kts 32°
2026-05-07 15:20 1.42332 103.87163 596 ft 91 kts 33°
2026-05-07 15:20 1.42959 103.87326 652 ft 98 kts 348°
2026-05-07 15:20 1.43471 103.86888 721 ft 101 kts 282°
2026-05-07 15:21 1.43268 103.86255 748 ft 92 kts 222°
2026-05-07 15:21 1.42807 103.85829 730 ft 87 kts 211°
2026-05-07 15:21 1.42302 103.85490 710 ft 85 kts 213°
2026-05-07 15:21 1.41796 103.85139 759 ft 94 kts 211°
2026-05-07 15:22 1.41226 103.84713 797 ft 103 kts 215°
2026-05-07 15:22 1.40686 103.84363 675 ft 75 kts 190°
2026-05-07 15:22 1.40274 103.84516 529 ft 67 kts 127°
2026-05-07 15:22 1.40064 103.84931 494 ft 72 kts 97°
2026-05-07 15:23 1.40081 103.85418 337 ft 71 kts 78°
2026-05-07 15:23 1.40316 103.85857 197 ft 72 kts 48°
2026-05-07 15:23 1.40742 103.86150 126 ft 82 kts 32°
2026-05-07 15:23 1.41210 103.86448 47 ft 68 kts 35°
2026-05-07 15:24 1.41652 103.86732 160 ft 84 kts 32°
2026-05-07 15:24 1.42165 103.87054 469 ft 86 kts 31°
2026-05-07 15:24 1.42699 103.87361 765 ft 88 kts 31°
2026-05-07 15:24 1.43331 103.87611 982 ft 100 kts
2026-05-07 15:25 1.44009 103.87439 1006 ft 104 kts 323°
2026-05-07 15:25 1.44302 103.86787 991 ft 106 kts 256°
2026-05-07 15:25 1.43866 103.86226 975 ft 105 kts 215°
2026-05-07 15:25 1.43233 103.85822 934 ft 110 kts 208°
2026-05-07 15:26 1.42559 103.85432 920 ft 112 kts 208°
2026-05-07 15:26 1.41911 103.85026 975 ft 107 kts 212°
2026-05-07 15:26 1.41307 103.84573 964 ft 105 kts 214°
2026-05-07 15:26 1.40694 103.84287 744 ft 87 kts 182°
2026-05-07 15:27 1.40169 103.84427 549 ft 75 kts 145°
2026-05-07 15:27 1.39891 103.84800 471 ft 68 kts 110°
2026-05-07 15:27 1.39890 103.85280 394 ft 73 kts 77°
2026-05-07 15:27 1.40152 103.85716 260 ft 72 kts 46°
2026-05-07 15:28 1.40544 103.86018 157 ft 73 kts 32°
2026-05-07 15:28 1.40997 103.86306 48 ft 71 kts 35°
2026-05-07 15:28 1.41380 103.86558 47 ft 79 kts 33°
2026-05-07 15:28 1.41862 103.86873 132 ft 76 kts 33°
2026-05-07 15:29 1.42356 103.87170 217 ft 87 kts 30°
2026-05-07 15:29 1.42944 103.87109 317 ft 93 kts 311°
2026-05-07 15:29 1.42973 103.86514 439 ft 90 kts 232°
2026-05-07 15:29 1.42646 103.86004 592 ft 89 kts 233°
2026-05-07 15:30 1.42278 103.85497 705 ft 92 kts 227°
2026-05-07 15:30 1.41831 103.85020 860 ft 92 kts 221°
2026-05-07 15:30 1.41362 103.84566 896 ft 95 kts 221°
2026-05-07 15:30 1.40914 103.84062 893 ft 93 kts 226°
2026-05-07 15:31 1.40433 103.83652 869 ft 91 kts 191°
2026-05-07 15:31 1.39900 103.83872 813 ft 83 kts 126°
2026-05-07 15:31 1.39703 103.84313 674 ft 67 kts 107°
2026-05-07 15:31 1.39647 103.84759 528 ft 68 kts 84°
2026-05-07 15:32 1.39809 103.85228 448 ft 74 kts 64°
2026-05-07 15:32 1.40097 103.85687 330 ft 79 kts 55°
2026-05-07 15:32 1.40517 103.85988 159 ft 72 kts 34°
2026-05-07 15:32 1.40939 103.86271 74 ft 75 kts 34°
2026-05-07 15:33 1.41368 103.86554 57 ft 71 kts 34°
2026-05-07 15:33 1.41805 103.86829 193 ft 86 kts 31°
2026-05-07 15:33 1.42365 103.87158 421 ft 101 kts 28°
2026-05-07 15:33 1.43053 103.87216 756 ft 101 kts 348°
2026-05-07 15:34 1.43624 103.86794 940 ft 106 kts 292°
2026-05-07 15:34 1.43475 103.86061 981 ft 120 kts 221°
2026-05-07 15:34 1.42756 103.85528 1125 ft 134 kts 216°
2026-05-07 15:34 1.41942 103.84911 1001 ft 139 kts 214°
2026-05-07 15:35 1.41224 103.84405 858 ft 114 kts 211°
2026-05-07 15:35 1.40601 103.84154 779 ft 78 kts 179°
2026-05-07 15:35 1.40062 103.84257 735 ft 83 kts 153°
2026-05-07 15:35 1.39581 103.84560 685 ft 71 kts 134°
2026-05-07 15:36 1.39444 103.84982 492 ft 64 kts 83°
2026-05-07 15:36 1.39634 103.85383 350 ft 64 kts 49°
2026-05-07 15:36 1.40002 103.85654 286 ft 70 kts 35°
2026-05-07 15:36 1.40436 103.85942 194 ft 72 kts 37°
2026-05-07 15:37 1.40850 103.86213 84 ft 74 kts 35°
2026-05-07 15:37 1.41242 103.86472 47 ft 57 kts 33°
2026-05-07 15:37 1.41569 103.86682 47 ft 65 kts 33°
2026-05-07 15:37 1.41984 103.86951 136 ft 65 kts 33°
2026-05-07 15:38 1.42381 103.87192 141 ft 66 kts 31°
2026-05-07 15:38 1.42884 103.87363 293 ft 86 kts 341°
2026-05-07 15:38 1.43308 103.86900 547 ft 93 kts 293°
2026-05-07 15:38 1.43260 103.86257 754 ft 101 kts 226°
2026-05-07 15:39 1.42707 103.85800 904 ft 96 kts 217°
2026-05-07 15:39 1.42218 103.85407 897 ft 88 kts 212°
2026-05-07 15:39 1.41707 103.85018 972 ft 91 kts 216°
2026-05-07 15:39 1.41260 103.84656 828 ft 80 kts 216°
2026-05-07 15:40 1.40807 103.84285 885 ft 88 kts 216°
2026-05-07 15:40 1.40368 103.83921 830 ft 80 kts 216°
2026-05-07 15:40 1.39962 103.83550 965 ft 79 kts 215°
2026-05-07 15:40 1.39484 103.83489 1027 ft 78 kts 135°
2026-05-07 15:41 1.39125 103.83872 920 ft 68 kts 131°
2026-05-07 15:41 1.38857 103.84237 740 ft 60 kts 109°
2026-05-07 15:41 1.38901 103.84644 629 ft 59 kts 63°
2026-05-07 15:41 1.39157 103.84994 528 ft 63 kts 53°
2026-05-07 15:42 1.39489 103.85316 463 ft 68 kts 40°
2026-05-07 15:42 1.39906 103.85595 372 ft 74 kts 32°
2026-05-07 15:42 1.40355 103.85880 249 ft 75 kts 39°
2026-05-07 15:42 1.40769 103.86158 98 ft 69 kts 34°
2026-05-07 15:43 1.41164 103.86417 47 ft 62 kts 34°
2026-05-07 15:43 1.41509 103.86643 47 ft 73 kts 34°
2026-05-07 15:43 1.41993 103.86949 283 ft 87 kts 31°
2026-05-07 15:43 1.42576 103.87114 555 ft 95 kts 347°
2026-05-07 15:44 1.43025 103.86661 554 ft 99 kts 273°
2026-05-07 15:44 1.42707 103.86092 530 ft 97 kts 217°
2026-05-07 15:44 1.42171 103.85677 707 ft 101 kts 215°
2026-05-07 15:44 1.41555 103.85203 863 ft 119 kts 214°
2026-05-07 15:45 1.40968 103.84730 894 ft 97 kts 218°
2026-05-07 15:45 1.40374 103.84538 700 ft 83 kts 159°
2026-05-07 15:45 1.39980 103.84856 579 ft 76 kts 123°
2026-05-07 15:45 1.39847 103.85323 385 ft 69 kts 81°
2026-05-07 15:46 1.40580 103.86035 145 ft 82 kts 36°
2026-05-07 15:46 1.41036 103.86331 47 ft 67 kts 36°
2026-05-07 15:46 1.41363 103.86548 46 ft 48 kts 33°
2026-05-07 15:47 1.41558 103.86674 46 ft 10 kts 30°
2026-05-07 15:47 1.41563 103.86677 46 ft 3 kts 30°
2026-05-07 15:47 1.41795 103.86831 47 ft 75 kts 34°
2026-05-07 15:47 1.42286 103.87122 276 ft 87 kts 356°
2026-05-07 15:48 1.42501 103.86583 336 ft 115 kts 251°
2026-05-07 15:48 1.42067 103.85864 511 ft 127 kts 224°
2026-05-07 15:48 1.41383 103.85218 665 ft 137 kts 221°
2026-05-07 15:48 1.40710 103.84581 672 ft 121 kts 223°
2026-05-07 15:49 1.40098 103.84200 564 ft 84 kts 181°
2026-05-07 15:49 1.39661 103.84409 526 ft 71 kts 124°
2026-05-07 15:49 1.39541 103.84914 514 ft 78 kts 90°
2026-05-07 15:49 1.39747 103.85434 382 ft 80 kts 58°
2026-05-07 15:50 1.40148 103.85758 243 ft 79 kts 32°
2026-05-07 15:50 1.40628 103.86070 130 ft 76 kts 34°
2026-05-07 15:50 1.41028 103.86332 47 ft 62 kts 31°
2026-05-07 15:50 1.41459 103.86616 47 ft 64 kts 31°
2026-05-07 15:51 1.41578 103.86705 46 ft 9 kts 187°
2026-05-07 15:51 1.41506 103.86762 46 ft 11 kts 119°
2026-05-07 15:51 1.41485 103.86787 46 ft 0 kts 121°
2026-05-07 15:52 1.41426 103.86779 46 ft 9 kts 177°
2026-05-07 15:52 1.41393 103.86842 46 ft 9 kts 95°
2026-05-07 15:52 1.41413 103.86861 46 ft 0 kts 31°
2026-05-07 15:53 1.41409 103.86859 46 ft 0 kts 31°
2026-05-07 15:53 1.41406 103.86857 46 ft 0 kts 31°
2026-05-07 16:01 1.41407 103.86855 46 ft 0 kts 31°
2026-05-07 16:02 1.41414 103.86850 46 ft 0 kts 238°
2026-05-07 16:03 1.41428 103.86829 46 ft 0 kts 258°
2026-05-07 16:03 1.41430 103.86829 47 ft 0 kts 211°
2026-05-07 16:03 1.41432 103.86829 47 ft 0 kts 211°